createdAt,value
2022-11-16T00:00:05.796Z,14.28
2022-11-16T00:02:46.927Z,13.00
2022-11-16T00:04:08.849Z,13.98
2022-11-16T00:05:30.136Z,17.62
2022-11-16T00:06:51.831Z,13.61
2022-11-16T00:08:13.028Z,17.79
2022-11-16T00:09:34.450Z,13.96
2022-11-16T00:10:55.649Z,18.36
2022-11-16T00:12:16.808Z,19.54
2022-11-16T00:13:38.344Z,17.45
2022-11-16T00:14:59.771Z,17.83
2022-11-16T00:16:21.208Z,21.41
2022-11-16T00:17:42.721Z,23.09
2022-11-16T00:19:04.813Z,23.74
2022-11-16T00:20:26.085Z,24.95
2022-11-16T00:22:56.739Z,28.36
2022-11-16T00:24:19.424Z,57.05
2022-11-16T00:25:40.908Z,63.42
2022-11-16T00:27:02.304Z,35.16
2022-11-16T00:28:23.649Z,20.74
2022-11-16T00:29:45.130Z,20.22
2022-11-16T00:31:06.587Z,31.91
2022-11-16T00:32:27.718Z,25.41
2022-11-16T00:33:49.871Z,24.86
2022-11-16T00:35:11.132Z,20.48
2022-11-16T00:36:32.572Z,14.66
2022-11-16T00:37:53.988Z,14.69
2022-11-16T00:39:15.954Z,14.44
2022-11-16T00:40:37.502Z,15.26
2022-11-16T00:41:58.593Z,13.02
2022-11-16T00:43:19.738Z,15.50
2022-11-16T00:44:40.830Z,22.16
2022-11-16T00:46:02.285Z,16.75
2022-11-16T00:47:24.009Z,14.79
2022-11-16T00:48:45.743Z,26.26
2022-11-16T00:50:08.593Z,33.85
2022-11-16T00:51:29.790Z,20.57
2022-11-16T00:52:52.066Z,26.02
2022-11-16T00:54:13.090Z,27.35
2022-11-16T00:55:34.504Z,23.47
2022-11-16T00:56:55.535Z,16.25
2022-11-16T00:58:16.847Z,17.03
2022-11-16T00:59:38.287Z,13.58
2022-11-16T01:02:15.372Z,16.91
2022-11-16T01:03:36.969Z,13.31
2022-11-16T01:04:58.412Z,11.90
2022-11-16T01:06:19.885Z,11.05
2022-11-16T01:07:41.072Z,11.76
2022-11-16T01:09:02.733Z,12.13
2022-11-16T01:10:25.017Z,13.42
2022-11-16T01:11:46.476Z,12.91
2022-11-16T01:13:08.341Z,13.40
2022-11-16T01:14:29.892Z,10.93
2022-11-16T05:13:49.482Z,40.08
2022-11-16T05:15:13.891Z,30.30
2022-11-16T05:16:38.440Z,27.89
2022-11-16T05:18:01.642Z,36.34
2022-11-16T05:19:25.880Z,51.81
2022-11-16T05:22:08.381Z,30.14
2022-11-16T05:23:32.215Z,47.71
2022-11-16T05:24:54.834Z,51.69
2022-11-16T05:26:17.691Z,49.76
2022-11-16T05:27:38.859Z,46.34
2022-11-16T05:29:01.846Z,57.60
2022-11-16T05:30:27.685Z,61.59
2022-11-16T05:31:48.774Z,37.85
2022-11-16T05:33:12.235Z,24.62
2022-11-16T05:34:35.727Z,26.93
2022-11-16T05:35:57.471Z,22.79
2022-11-16T05:37:30.523Z,25.84
2022-11-16T05:40:10.976Z,18.64
2022-11-16T05:41:34.378Z,19.25
2022-11-16T05:42:57.454Z,21.81
2022-11-16T05:44:20.691Z,21.88
2022-11-16T05:45:47.040Z,20.32
2022-11-16T05:47:10.543Z,23.93
2022-11-16T05:48:34.250Z,19.37
2022-11-16T05:49:55.588Z,21.13
2022-11-16T05:51:19.456Z,21.19
2022-11-16T05:52:41.552Z,23.07
2022-11-16T05:54:03.024Z,20.77
2022-11-16T05:55:24.646Z,26.94
2022-11-16T05:56:47.312Z,26.85
2022-11-16T05:58:11.040Z,24.73
2022-11-16T05:59:32.907Z,23.78
2022-11-16T06:02:15.476Z,26.69
2022-11-16T06:03:36.898Z,28.47
2022-11-16T06:04:59.288Z,28.67
2022-11-16T06:07:52.973Z,27.39
2022-11-16T06:09:15.374Z,26.93
2022-11-16T06:10:36.630Z,28.92
2022-11-16T06:12:07.471Z,27.30
2022-11-16T06:13:29.614Z,23.48
2022-11-16T06:14:57.916Z,22.54
2022-11-16T06:16:22.995Z,19.91
2022-11-16T06:17:51.993Z,18.84
2022-11-16T06:19:16.859Z,19.56
2022-11-16T06:20:40.850Z,17.79
2022-11-16T06:22:22.479Z,19.24
2022-11-16T06:27:15.843Z,26.49
2022-11-16T06:28:50.427Z,36.83
2022-11-16T06:30:16.920Z,41.66
2022-11-16T06:33:28.573Z,46.58
2022-11-16T06:36:35.318Z,30.71
2022-11-16T06:39:50.245Z,25.37
2022-11-16T06:41:22.954Z,25.93
2022-11-16T06:49:35.505Z,19.99
2022-11-16T06:51:02.378Z,19.19
2022-11-16T06:52:31.385Z,18.60
2022-11-16T06:54:02.906Z,20.21
2022-11-16T06:55:40.227Z,18.40
2022-11-16T06:57:05.128Z,20.41
2022-11-16T07:05:31.612Z,27.28
2022-11-16T07:06:56.026Z,31.56
2022-11-16T07:08:25.892Z,39.23
2022-11-16T07:11:34.199Z,45.39
2022-11-16T07:16:28.712Z,42.86
2022-11-16T07:17:50.077Z,44.11
2022-11-16T07:19:13.253Z,41.62
2022-11-16T07:20:53.401Z,41.07
2022-11-16T07:24:04.641Z,38.42
2022-11-16T07:33:32.806Z,19.78
2022-11-16T07:36:42.481Z,18.61
2022-11-16T07:38:07.424Z,16.31
2022-11-16T07:39:29.614Z,19.03
2022-11-16T07:40:52.692Z,17.91
2022-11-16T07:42:17.168Z,18.22
2022-11-16T07:43:39.505Z,20.94
2022-11-16T07:45:03.948Z,19.06
2022-11-16T07:51:55.811Z,21.09
2022-11-16T07:53:19.895Z,20.08
2022-11-16T07:54:43.373Z,22.65
2022-11-16T07:56:05.510Z,21.97
2022-11-16T07:57:34.062Z,20.39
2022-11-16T07:59:04.453Z,20.58
2022-11-16T08:00:35.268Z,22.29
2022-11-16T08:02:06.257Z,23.54
2022-11-16T08:03:32.753Z,23.60
2022-11-16T08:04:56.459Z,19.22
2022-11-16T08:06:20.874Z,22.34
2022-11-16T08:09:38.666Z,23.88
2022-11-16T08:34:21.215Z,26.31
2022-11-16T08:36:02.123Z,27.52
2022-11-16T08:50:01.794Z,55.86
2022-11-16T08:58:19.317Z,42.91
2022-11-16T08:59:40.761Z,35.11
2022-11-16T09:01:19.283Z,33.71
2022-11-16T09:02:40.938Z,32.24
2022-11-16T09:04:02.563Z,29.99
2022-11-16T09:05:24.127Z,29.91
2022-11-16T09:06:45.665Z,27.19
2022-11-16T09:08:08.187Z,26.97
2022-11-16T09:09:29.304Z,28.49
2022-11-16T09:10:51.222Z,25.88
2022-11-16T09:12:12.389Z,24.13
2022-11-16T09:13:33.833Z,25.39
2022-11-16T09:14:56.472Z,23.17
2022-11-16T09:17:31.013Z,18.53
2022-11-16T09:18:52.467Z,21.84
2022-11-16T09:20:19.139Z,24.80
2022-11-16T09:21:40.484Z,24.06
2022-11-16T09:23:01.982Z,30.93
2022-11-16T09:24:23.139Z,23.48
2022-11-16T09:25:45.118Z,24.23
2022-11-16T09:27:06.228Z,23.21
2022-11-16T09:28:28.019Z,26.74
2022-11-16T09:29:49.148Z,32.72
2022-11-16T09:31:11.161Z,33.31
2022-11-16T09:32:33.288Z,31.74
2022-11-16T09:33:55.297Z,36.68
2022-11-16T09:35:18.570Z,34.54
2022-11-16T09:36:40.158Z,36.73
2022-11-16T09:38:01.242Z,32.63
2022-11-16T09:39:31.641Z,35.44
2022-11-16T09:40:46.110Z,31.76
2022-11-16T09:42:29.153Z,31.76
2022-11-16T09:45:17.174Z,31.42
2022-11-16T09:46:40.856Z,27.02
2022-11-16T09:48:03.464Z,27.80
2022-11-16T09:50:49.167Z,24.42
2022-11-16T09:53:36.585Z,21.22
2022-11-16T09:54:59.839Z,25.11
2022-11-16T09:57:44.210Z,21.16
2022-11-16T10:02:51.474Z,20.32
2022-11-16T10:10:18.019Z,23.57
2022-11-16T10:14:20.646Z,17.80
2022-11-16T10:16:13.328Z,20.40
2022-11-16T10:32:23.529Z,12.90
2022-11-16T10:37:34.122Z,15.50
2022-11-16T10:47:59.188Z,12.53
2022-11-16T10:49:59.089Z,10.04
2022-11-16T10:51:20.789Z,10.22
2022-11-16T10:52:42.317Z,10.11
2022-11-16T10:55:23.004Z,9.91
2022-11-16T10:56:47.871Z,9.51
2022-11-16T10:58:09.031Z,9.99
2022-11-16T10:59:44.808Z,10.03
2022-11-16T11:01:09.704Z,10.81
2022-11-16T11:04:28.062Z,9.21
2022-11-16T11:05:51.761Z,13.37
2022-11-16T11:07:25.196Z,13.96
2022-11-16T11:09:16.626Z,11.59
2022-11-16T11:10:39.247Z,10.91
2022-11-16T11:12:16.716Z,11.03
2022-11-16T11:13:38.242Z,11.55
2022-11-16T11:15:12.219Z,10.12
2022-11-16T11:16:33.636Z,10.23
2022-11-16T11:18:09.430Z,12.62
2022-11-16T11:19:30.739Z,8.77
2022-11-16T11:21:11.118Z,10.53
2022-11-16T11:22:33.970Z,12.03
2022-11-16T11:23:59.412Z,10.64
2022-11-16T11:25:30.249Z,13.64
2022-11-16T11:26:53.068Z,13.98
2022-11-16T11:29:53.826Z,13.37
2022-11-16T11:31:20.363Z,17.03
2022-11-16T11:32:47.504Z,14.39
2022-11-16T11:34:29.494Z,19.54
2022-11-16T11:35:56.734Z,18.63
2022-11-16T11:37:27.496Z,14.35
2022-11-16T11:39:03.763Z,12.91
2022-11-16T11:40:26.325Z,12.95
2022-11-16T11:42:02.959Z,11.83
2022-11-16T11:43:24.356Z,10.64
2022-11-16T11:46:18.577Z,9.39
2022-11-16T11:48:01.688Z,12.32
2022-11-16T11:51:00.306Z,11.44
2022-11-16T11:52:39.040Z,8.76
2022-11-16T11:54:04.651Z,8.32
2022-11-16T11:55:26.139Z,9.57
2022-11-16T11:58:05.731Z,9.21
2022-11-16T11:59:26.819Z,10.23
2022-11-16T12:02:25.993Z,7.92
2022-11-16T12:04:02.394Z,14.06
2022-11-16T22:43:15.165Z,2.41
